sensor_id;sensor_type;location;lat;lon;timestamp;pressure;altitude;pressure_sealevel;temperature;humidity
23733;BME280;12047;53.450;-2.286;2023-08-06T00:04:01;101168.75;;;17.73;100.00
23733;BME280;12047;53.450;-2.286;2023-08-06T00:09:02;101170.38;;;17.82;100.00
23733;BME280;12047;53.450;-2.286;2023-08-06T00:14:02;101169.88;;;18.17;100.00
23733;BME280;12047;53.450;-2.286;2023-08-06T00:19:03;101172.56;;;18.17;100.00
23733;BME280;12047;53.450;-2.286;2023-08-06T00:24:03;101178.69;;;18.03;100.00
23733;BME280;12047;53.450;-2.286;2023-08-06T00:29:04;101177.09;;;18.17;100.00
23733;BME280;12047;53.450;-2.286;2023-08-06T00:34:04;101178.69;;;18.03;100.00
23733;BME280;12047;53.450;-2.286;2023-08-06T00:39:04;101180.13;;;18.45;100.00
23733;BME280;12047;53.450;-2.286;2023-08-06T00:44:07;101181.16;;;18.35;100.00
23733;BME280;12047;53.450;-2.286;2023-08-06T00:49:07;101188.13;;;18.22;100.00
23733;BME280;12047;53.450;-2.286;2023-08-06T00:54:09;101173.22;;;17.88;100.00
23733;BME280;12047;53.450;-2.286;2023-08-06T00:59:10;101193.47;;;17.91;100.00
23733;BME280;12047;53.450;-2.286;2023-08-06T01:04:12;101202.16;;;18.01;100.00
23733;BME280;12047;53.450;-2.286;2023-08-06T01:15:12;101198.34;;;18.26;100.00
23733;BME280;12047;53.450;-2.286;2023-08-06T01:20:14;101202.56;;;18.21;100.00
23733;BME280;12047;53.450;-2.286;2023-08-06T01:25:15;101202.75;;;18.11;100.00
23733;BME280;12047;53.450;-2.286;2023-08-06T01:30:20;101203.28;;;18.07;100.00
23733;BME280;12047;53.450;-2.286;2023-08-06T01:35:22;101211.78;;;17.63;100.00
23733;BME280;12047;53.450;-2.286;2023-08-06T01:40:23;101212.25;;;17.91;100.00
23733;BME280;12047;53.450;-2.286;2023-08-06T01:45:25;101219.09;;;16.89;100.00
23733;BME280;12047;53.450;-2.286;2023-08-06T01:50:25;101229.47;;;17.25;100.00
23733;BME280;12047;53.450;-2.286;2023-08-06T01:55:26;101220.44;;;17.97;100.00
23733;BME280;12047;53.450;-2.286;2023-08-06T02:00:26;101228.81;;;18.02;100.00
23733;BME280;12047;53.450;-2.286;2023-08-06T02:05:29;101218.75;;;17.96;100.00
23733;BME280;12047;53.450;-2.286;2023-08-06T02:10:29;101223.47;;;17.94;100.00
23733;BME280;12047;53.450;-2.286;2023-08-06T02:15:29;101222.97;;;17.91;100.00
23733;BME280;12047;53.450;-2.286;2023-08-06T02:20:30;101219.84;;;17.63;100.00
23733;BME280;12047;53.450;-2.286;2023-08-06T02:25:30;101223.81;;;17.91;100.00
23733;BME280;12047;53.450;-2.286;2023-08-06T02:30:31;101222.91;;;17.52;100.00
23733;BME280;12047;53.450;-2.286;2023-08-06T02:35:31;101217.91;;;18.04;100.00
23733;BME280;12047;53.450;-2.286;2023-08-06T02:40:31;101226.00;;;18.27;100.00
23733;BME280;12047;53.450;-2.286;2023-08-06T02:45:32;101225.28;;;18.02;100.00
23733;BME280;12047;53.450;-2.286;2023-08-06T02:50:39;101231.19;;;17.89;100.00
23733;BME280;12047;53.450;-2.286;2023-08-06T02:55:44;101229.88;;;18.24;100.00
23733;BME280;12047;53.450;-2.286;2023-08-06T03:00:46;101228.72;;;17.80;100.00
23733;BME280;12047;53.450;-2.286;2023-08-06T03:05:53;101229.41;;;18.13;100.00
23733;BME280;12047;53.450;-2.286;2023-08-06T03:10:54;101227.41;;;18.07;100.00
23733;BME280;12047;53.450;-2.286;2023-08-06T03:15:56;101232.59;;;17.69;100.00
23733;BME280;12047;53.450;-2.286;2023-08-06T03:20:57;101234.69;;;17.98;100.00
23733;BME280;12047;53.450;-2.286;2023-08-06T03:26:04;101230.59;;;18.10;100.00
23733;BME280;12047;53.450;-2.286;2023-08-06T03:31:04;101239.28;;;18.20;100.00
23733;BME280;12047;53.450;-2.286;2023-08-06T03:36:05;101236.38;;;18.30;100.00
23733;BME280;12047;53.450;-2.286;2023-08-06T03:41:06;101233.81;;;18.36;100.00
23733;BME280;12047;53.450;-2.286;2023-08-06T03:46:06;101236.66;;;18.35;100.00
23733;BME280;12047;53.450;-2.286;2023-08-06T03:51:07;101239.13;;;18.14;100.00
23733;BME280;12047;53.450;-2.286;2023-08-06T03:56:07;101244.63;;;18.20;100.00
23733;BME280;12047;53.450;-2.286;2023-08-06T04:01:08;101240.03;;;17.98;100.00
23733;BME280;12047;53.450;-2.286;2023-08-06T04:06:08;101239.41;;;18.27;100.00
23733;BME280;12047;53.450;-2.286;2023-08-06T04:11:09;101242.69;;;18.37;100.00
23733;BME280;12047;53.450;-2.286;2023-08-06T04:16:09;101241.66;;;18.07;100.00
23733;BME280;12047;53.450;-2.286;2023-08-06T04:21:10;101245.03;;;18.40;100.00
23733;BME280;12047;53.450;-2.286;2023-08-06T04:26:10;101255.72;;;18.17;100.00
23733;BME280;12047;53.450;-2.286;2023-08-06T04:31:11;101261.38;;;18.30;100.00
23733;BME280;12047;53.450;-2.286;2023-08-06T04:36:11;101247.13;;;17.83;100.00
23733;BME280;12047;53.450;-2.286;2023-08-06T04:41:12;101256.81;;;17.92;100.00
23733;BME280;12047;53.450;-2.286;2023-08-06T04:46:12;101263.75;;;18.17;100.00
23733;BME280;12047;53.450;-2.286;2023-08-06T04:51:12;101264.84;;;17.92;100.00
23733;BME280;12047;53.450;-2.286;2023-08-06T04:56:13;101281.09;;;18.38;100.00
23733;BME280;12047;53.450;-2.286;2023-08-06T05:01:13;101278.59;;;17.97;100.00
23733;BME280;12047;53.450;-2.286;2023-08-06T05:06:14;101284.47;;;18.31;100.00
23733;BME280;12047;53.450;-2.286;2023-08-06T05:11:14;101280.16;;;18.22;100.00
23733;BME280;12047;53.450;-2.286;2023-08-06T05:16:15;101291.16;;;18.35;100.00
23733;BME280;12047;53.450;-2.286;2023-08-06T05:21:15;101295.78;;;18.19;100.00
23733;BME280;12047;53.450;-2.286;2023-08-06T05:26:16;101295.84;;;18.42;100.00
23733;BME280;12047;53.450;-2.286;2023-08-06T05:31:18;101298.22;;;18.36;100.00
23733;BME280;12047;53.450;-2.286;2023-08-06T05:36:19;101302.47;;;18.62;100.00
23733;BME280;12047;53.450;-2.286;2023-08-06T05:41:19;101310.72;;;18.52;100.00
23733;BME280;12047;53.450;-2.286;2023-08-06T05:46:20;101314.63;;;18.42;100.00
23733;BME280;12047;53.450;-2.286;2023-08-06T05:51:20;101320.81;;;18.50;100.00
23733;BME280;12047;53.450;-2.286;2023-08-06T05:56:21;101326.94;;;18.67;100.00
23733;BME280;12047;53.450;-2.286;2023-08-06T06:01:21;101333.63;;;18.71;100.00
23733;BME280;12047;53.450;-2.286;2023-08-06T06:06:22;101325.09;;;18.67;100.00
23733;BME280;12047;53.450;-2.286;2023-08-06T06:11:22;101326.03;;;19.06;100.00
23733;BME280;12047;53.450;-2.286;2023-08-06T06:16:23;101322.63;;;18.89;100.00
23733;BME280;12047;53.450;-2.286;2023-08-06T06:21:24;101331.34;;;18.60;100.00
23733;BME280;12047;53.450;-2.286;2023-08-06T06:26:24;101330.59;;;18.74;100.00
23733;BME280;12047;53.450;-2.286;2023-08-06T06:31:25;101331.78;;;19.25;100.00
23733;BME280;12047;53.450;-2.286;2023-08-06T06:36:25;101333.81;;;19.23;100.00
23733;BME280;12047;53.450;-2.286;2023-08-06T06:41:25;101343.72;;;19.46;100.00
23733;BME280;12047;53.450;-2.286;2023-08-06T06:46:26;101351.66;;;19.39;100.00
23733;BME280;12047;53.450;-2.286;2023-08-06T06:51:27;101357.19;;;18.92;100.00
23733;BME280;12047;53.450;-2.286;2023-08-06T06:56:27;101357.47;;;19.28;100.00
23733;BME280;12047;53.450;-2.286;2023-08-06T07:01:28;101362.06;;;19.65;100.00
23733;BME280;12047;53.450;-2.286;2023-08-06T07:06:28;101366.88;;;19.47;100.00
23733;BME280;12047;53.450;-2.286;2023-08-06T07:11:28;101370.91;;;19.74;100.00
23733;BME280;12047;53.450;-2.286;2023-08-06T07:16:29;101371.06;;;19.72;100.00
23733;BME280;12047;53.450;-2.286;2023-08-06T07:21:30;101379.31;;;19.70;100.00
23733;BME280;12047;53.450;-2.286;2023-08-06T07:26:30;101376.28;;;19.74;100.00
23733;BME280;12047;53.450;-2.286;2023-08-06T07:31:31;101383.94;;;19.99;100.00
23733;BME280;12047;53.450;-2.286;2023-08-06T07:36:31;101377.91;;;19.97;100.00
23733;BME280;12047;53.450;-2.286;2023-08-06T07:41:32;101385.59;;;20.15;100.00
23733;BME280;12047;53.450;-2.286;2023-08-06T07:46:33;101382.69;;;20.40;100.00
23733;BME280;12047;53.450;-2.286;2023-08-06T07:51:33;101381.19;;;20.52;100.00
23733;BME280;12047;53.450;-2.286;2023-08-06T07:56:34;101380.47;;;20.05;100.00
23733;BME280;12047;53.450;-2.286;2023-08-06T08:01:36;101378.38;;;20.75;100.00
23733;BME280;12047;53.450;-2.286;2023-08-06T08:06:37;101379.03;;;20.77;100.00
23733;BME280;12047;53.450;-2.286;2023-08-06T08:11:37;101379.28;;;20.82;100.00
23733;BME280;12047;53.450;-2.286;2023-08-06T08:16:38;101385.44;;;20.61;100.00
23733;BME280;12047;53.450;-2.286;2023-08-06T08:21:38;101394.41;;;21.33;100.00
23733;BME280;12047;53.450;-2.286;2023-08-06T08:26:39;101386.50;;;21.53;100.00
23733;BME280;12047;53.450;-2.286;2023-08-06T08:31:39;101398.72;;;21.49;100.00
23733;BME280;12047;53.450;-2.286;2023-08-06T08:36:39;101394.91;;;21.08;100.00
23733;BME280;12047;53.450;-2.286;2023-08-06T08:41:40;101402.50;;;21.76;100.00
23733;BME280;12047;53.450;-2.286;2023-08-06T08:46:43;101395.88;;;21.36;100.00
23733;BME280;12047;53.450;-2.286;2023-08-06T08:51:45;101402.94;;;22.01;100.00
23733;BME280;12047;53.450;-2.286;2023-08-06T08:56:46;101396.09;;;22.05;100.00
23733;BME280;12047;53.450;-2.286;2023-08-06T09:01:48;101397.97;;;22.04;100.00
23733;BME280;12047;53.450;-2.286;2023-08-06T09:06:52;101404.00;;;21.85;100.00
23733;BME280;12047;53.450;-2.286;2023-08-06T09:12:02;101415.56;;;22.28;100.00
23733;BME280;12047;53.450;-2.286;2023-08-06T09:17:06;101403.56;;;23.20;100.00
23733;BME280;12047;53.450;-2.286;2023-08-06T09:22:06;101415.91;;;22.47;100.00
23733;BME280;12047;53.450;-2.286;2023-08-06T09:27:14;101416.38;;;22.22;100.00
23733;BME280;12047;53.450;-2.286;2023-08-06T09:32:15;101406.75;;;22.82;100.00
23733;BME280;12047;53.450;-2.286;2023-08-06T09:37:15;101410.25;;;22.42;100.00
23733;BME280;12047;53.450;-2.286;2023-08-06T09:42:16;101417.38;;;22.49;100.00
23733;BME280;12047;53.450;-2.286;2023-08-06T09:47:16;101421.63;;;22.65;100.00
23733;BME280;12047;53.450;-2.286;2023-08-06T09:52:18;101425.25;;;22.44;100.00
23733;BME280;12047;53.450;-2.286;2023-08-06T09:57:20;101431.88;;;23.24;100.00
23733;BME280;12047;53.450;-2.286;2023-08-06T10:02:24;101435.28;;;22.57;100.00
23733;BME280;12047;53.450;-2.286;2023-08-06T10:07:26;101429.03;;;22.56;100.00
23733;BME280;12047;53.450;-2.286;2023-08-06T10:12:30;101433.44;;;23.05;100.00
23733;BME280;12047;53.450;-2.286;2023-08-06T10:17:33;101440.59;;;23.19;100.00
23733;BME280;12047;53.450;-2.286;2023-08-06T10:22:34;101449.41;;;22.24;100.00
23733;BME280;12047;53.450;-2.286;2023-08-06T10:27:39;101454.81;;;22.59;100.00
23733;BME280;12047;53.450;-2.286;2023-08-06T10:32:47;101446.00;;;22.78;100.00
23733;BME280;12047;53.450;-2.286;2023-08-06T10:37:50;101448.47;;;22.73;100.00
23733;BME280;12047;53.450;-2.286;2023-08-06T10:42:51;101446.13;;;23.04;100.00
23733;BME280;12047;53.450;-2.286;2023-08-06T10:47:52;101455.44;;;22.89;100.00
23733;BME280;12047;53.450;-2.286;2023-08-06T10:52:52;101445.78;;;22.73;100.00
23733;BME280;12047;53.450;-2.286;2023-08-06T10:57:54;101448.56;;;22.52;100.00
23733;BME280;12047;53.450;-2.286;2023-08-06T11:02:55;101457.38;;;22.67;100.00
23733;BME280;12047;53.450;-2.286;2023-08-06T11:07:56;101450.84;;;22.55;100.00
23733;BME280;12047;53.450;-2.286;2023-08-06T11:13:01;101454.81;;;22.24;100.00
23733;BME280;12047;53.450;-2.286;2023-08-06T11:18:02;101452.59;;;22.69;100.00
23733;BME280;12047;53.450;-2.286;2023-08-06T11:23:03;101457.72;;;22.57;100.00
23733;BME280;12047;53.450;-2.286;2023-08-06T11:28:04;101454.34;;;22.49;100.00
23733;BME280;12047;53.450;-2.286;2023-08-06T11:33:07;101460.72;;;21.92;100.00
23733;BME280;12047;53.450;-2.286;2023-08-06T11:38:09;101458.72;;;22.84;100.00
23733;BME280;12047;53.450;-2.286;2023-08-06T11:43:10;101457.53;;;22.93;100.00
23733;BME280;12047;53.450;-2.286;2023-08-06T11:48:11;101459.56;;;22.57;100.00
23733;BME280;12047;53.450;-2.286;2023-08-06T11:53:15;101454.81;;;22.59;100.00
23733;BME280;12047;53.450;-2.286;2023-08-06T11:58:16;101467.94;;;22.62;100.00
23733;BME280;12047;53.450;-2.286;2023-08-06T12:03:19;101468.50;;;22.57;100.00
23733;BME280;12047;53.450;-2.286;2023-08-06T12:08:19;101479.69;;;21.98;100.00
23733;BME280;12047;53.450;-2.286;2023-08-06T12:13:20;101473.78;;;22.10;100.00
23733;BME280;12047;53.450;-2.286;2023-08-06T12:18:20;101480.53;;;21.78;100.00
23733;BME280;12047;53.450;-2.286;2023-08-06T12:23:21;101475.94;;;22.77;100.00
23733;BME280;12047;53.450;-2.286;2023-08-06T12:28:21;101475.09;;;22.76;100.00
23733;BME280;12047;53.450;-2.286;2023-08-06T12:33:21;101486.19;;;22.88;100.00
23733;BME280;12047;53.450;-2.286;2023-08-06T12:38:22;101484.00;;;22.70;100.00
23733;BME280;12047;53.450;-2.286;2023-08-06T12:43:22;101486.69;;;22.70;100.00
23733;BME280;12047;53.450;-2.286;2023-08-06T12:48:23;101499.00;;;23.14;100.00
23733;BME280;12047;53.450;-2.286;2023-08-06T12:53:23;101500.53;;;22.32;100.00
23733;BME280;12047;53.450;-2.286;2023-08-06T12:58:23;101501.03;;;22.43;100.00
23733;BME280;12047;53.450;-2.286;2023-08-06T13:03:24;101504.31;;;22.10;100.00
23733;BME280;12047;53.450;-2.286;2023-08-06T13:08:24;101512.69;;;21.79;100.00
23733;BME280;12047;53.450;-2.286;2023-08-06T13:13:25;101515.50;;;22.07;100.00
23733;BME280;12047;53.450;-2.286;2023-08-06T13:18:27;101521.13;;;21.91;100.00
23733;BME280;12047;53.450;-2.286;2023-08-06T13:23:29;101515.94;;;21.02;100.00
23733;BME280;12047;53.450;-2.286;2023-08-06T13:28:29;101531.25;;;21.31;100.00
23733;BME280;12047;53.450;-2.286;2023-08-06T13:33:30;101531.25;;;21.02;100.00
23733;BME280;12047;53.450;-2.286;2023-08-06T13:38:30;101522.63;;;20.77;100.00
23733;BME280;12047;53.450;-2.286;2023-08-06T13:43:31;101531.81;;;20.97;100.00
23733;BME280;12047;53.450;-2.286;2023-08-06T13:48:31;101526.41;;;20.83;100.00
23733;BME280;12047;53.450;-2.286;2023-08-06T13:53:32;101514.81;;;20.67;100.00
23733;BME280;12047;53.450;-2.286;2023-08-06T13:58:33;101530.66;;;22.08;100.00
23733;BME280;12047;53.450;-2.286;2023-08-06T14:03:34;101524.50;;;21.21;100.00
23733;BME280;12047;53.450;-2.286;2023-08-06T14:08:35;101518.88;;;21.37;100.00
23733;BME280;12047;53.450;-2.286;2023-08-06T14:13:36;101524.72;;;21.77;100.00
23733;BME280;12047;53.450;-2.286;2023-08-06T14:18:37;101521.22;;;22.47;100.00
23733;BME280;12047;53.450;-2.286;2023-08-06T14:23:38;101512.84;;;22.97;100.00
23733;BME280;12047;53.450;-2.286;2023-08-06T14:28:41;101513.91;;;22.68;100.00
23733;BME280;12047;53.450;-2.286;2023-08-06T14:33:41;101520.34;;;22.39;100.00
23733;BME280;12047;53.450;-2.286;2023-08-06T14:38:42;101517.44;;;22.41;100.00
23733;BME280;12047;53.450;-2.286;2023-08-06T14:43:42;101516.34;;;23.39;100.00
23733;BME280;12047;53.450;-2.286;2023-08-06T14:48:43;101533.38;;;24.00;100.00
23733;BME280;12047;53.450;-2.286;2023-08-06T14:53:43;101521.94;;;23.31;100.00
23733;BME280;12047;53.450;-2.286;2023-08-06T14:58:44;101531.19;;;23.08;100.00
23733;BME280;12047;53.450;-2.286;2023-08-06T15:03:44;101531.44;;;23.14;100.00
23733;BME280;12047;53.450;-2.286;2023-08-06T15:08:45;101533.50;;;23.12;100.00
23733;BME280;12047;53.450;-2.286;2023-08-06T15:13:47;101535.00;;;22.30;100.00
23733;BME280;12047;53.450;-2.286;2023-08-06T15:18:47;101534.06;;;22.17;100.00
23733;BME280;12047;53.450;-2.286;2023-08-06T15:23:49;101536.34;;;23.03;100.00
23733;BME280;12047;53.450;-2.286;2023-08-06T15:28:49;101537.81;;;22.99;100.00
23733;BME280;12047;53.450;-2.286;2023-08-06T15:33:49;101539.28;;;23.50;100.00
23733;BME280;12047;53.450;-2.286;2023-08-06T15:38:50;101555.25;;;22.41;100.00
23733;BME280;12047;53.450;-2.286;2023-08-06T15:43:50;101548.81;;;22.70;100.00
23733;BME280;12047;53.450;-2.286;2023-08-06T15:48:51;101544.84;;;23.35;100.00
23733;BME280;12047;53.450;-2.286;2023-08-06T15:53:51;101556.28;;;22.68;100.00
23733;BME280;12047;53.450;-2.286;2023-08-06T15:58:51;101554.13;;;22.57;100.00
23733;BME280;12047;53.450;-2.286;2023-08-06T16:03:52;101557.47;;;22.87;100.00
23733;BME280;12047;53.450;-2.286;2023-08-06T16:08:52;101553.25;;;23.12;100.00
23733;BME280;12047;53.450;-2.286;2023-08-06T16:13:53;101556.06;;;22.91;100.00
23733;BME280;12047;53.450;-2.286;2023-08-06T16:18:53;101563.69;;;22.59;100.00
23733;BME280;12047;53.450;-2.286;2023-08-06T16:23:53;101563.13;;;23.33;100.00
23733;BME280;12047;53.450;-2.286;2023-08-06T16:28:54;101554.19;;;23.73;100.00
23733;BME280;12047;53.450;-2.286;2023-08-06T16:33:54;101564.59;;;23.83;100.00
23733;BME280;12047;53.450;-2.286;2023-08-06T16:38:55;101569.84;;;24.11;100.00
23733;BME280;12047;53.450;-2.286;2023-08-06T16:43:56;101575.16;;;23.65;100.00
23733;BME280;12047;53.450;-2.286;2023-08-06T16:48:57;101568.00;;;23.10;100.00
23733;BME280;12047;53.450;-2.286;2023-08-06T16:53:57;101579.63;;;22.76;100.00
23733;BME280;12047;53.450;-2.286;2023-08-06T16:59:00;101574.06;;;23.12;100.00
23733;BME280;12047;53.450;-2.286;2023-08-06T17:04:00;101591.59;;;23.29;100.00
23733;BME280;12047;53.450;-2.286;2023-08-06T17:09:01;101587.75;;;23.45;100.00
23733;BME280;12047;53.450;-2.286;2023-08-06T17:14:03;101592.97;;;23.46;100.00
23733;BME280;12047;53.450;-2.286;2023-08-06T17:19:04;101592.63;;;23.21;100.00
23733;BME280;12047;53.450;-2.286;2023-08-06T17:24:04;101595.34;;;23.28;100.00
23733;BME280;12047;53.450;-2.286;2023-08-06T17:29:05;101606.00;;;23.01;100.00
23733;BME280;12047;53.450;-2.286;2023-08-06T17:34:05;101601.13;;;22.62;100.00
23733;BME280;12047;53.450;-2.286;2023-08-06T17:39:05;101600.44;;;23.10;100.00
23733;BME280;12047;53.450;-2.286;2023-08-06T17:44:06;101609.97;;;22.50;100.00
23733;BME280;12047;53.450;-2.286;2023-08-06T17:49:06;101612.25;;;22.53;100.00
23733;BME280;12047;53.450;-2.286;2023-08-06T17:54:07;101608.13;;;22.57;100.00
23733;BME280;12047;53.450;-2.286;2023-08-06T17:59:07;101617.97;;;22.64;100.00
23733;BME280;12047;53.450;-2.286;2023-08-06T18:04:08;101627.44;;;22.54;100.00
23733;BME280;12047;53.450;-2.286;2023-08-06T18:09:09;101630.97;;;22.12;100.00
23733;BME280;12047;53.450;-2.286;2023-08-06T18:14:09;101624.09;;;22.09;100.00
23733;BME280;12047;53.450;-2.286;2023-08-06T18:19:10;101633.44;;;21.92;100.00
23733;BME280;12047;53.450;-2.286;2023-08-06T18:24:10;101639.53;;;22.15;100.00
23733;BME280;12047;53.450;-2.286;2023-08-06T18:29:10;101637.56;;;21.58;100.00
23733;BME280;12047;53.450;-2.286;2023-08-06T18:34:11;101631.44;;;22.15;100.00
23733;BME280;12047;53.450;-2.286;2023-08-06T18:39:11;101625.78;;;21.95;100.00
23733;BME280;12047;53.450;-2.286;2023-08-06T18:44:12;101625.47;;;21.54;100.00
23733;BME280;12047;53.450;-2.286;2023-08-06T18:49:12;101626.63;;;21.45;100.00
23733;BME280;12047;53.450;-2.286;2023-08-06T18:54:14;101623.63;;;21.55;100.00
23733;BME280;12047;53.450;-2.286;2023-08-06T18:59:15;101633.53;;;21.10;100.00
23733;BME280;12047;53.450;-2.286;2023-08-06T19:04:20;101639.84;;;21.25;100.00
23733;BME280;12047;53.450;-2.286;2023-08-06T19:09:20;101638.81;;;21.41;100.00
23733;BME280;12047;53.450;-2.286;2023-08-06T19:14:21;101637.88;;;21.49;100.00
23733;BME280;12047;53.450;-2.286;2023-08-06T19:19:21;101654.63;;;20.92;100.00
23733;BME280;12047;53.450;-2.286;2023-08-06T19:24:22;101650.97;;;21.22;100.00
23733;BME280;12047;53.450;-2.286;2023-08-06T19:29:22;101643.66;;;21.08;100.00
23733;BME280;12047;53.450;-2.286;2023-08-06T19:34:23;101652.66;;;21.23;100.00
23733;BME280;12047;53.450;-2.286;2023-08-06T19:39:23;101653.88;;;21.50;100.00
23733;BME280;12047;53.450;-2.286;2023-08-06T19:44:25;101657.84;;;21.39;100.00
23733;BME280;12047;53.450;-2.286;2023-08-06T19:49:26;101653.81;;;21.80;100.00
23733;BME280;12047;53.450;-2.286;2023-08-06T19:54:26;101656.25;;;21.60;100.00
23733;BME280;12047;53.450;-2.286;2023-08-06T19:59:27;101661.16;;;21.86;100.00
23733;BME280;12047;53.450;-2.286;2023-08-06T20:04:27;101664.53;;;21.29;100.00
23733;BME280;12047;53.450;-2.286;2023-08-06T20:09:27;101674.78;;;21.48;100.00
23733;BME280;12047;53.450;-2.286;2023-08-06T20:14:28;101667.06;;;21.45;100.00
23733;BME280;12047;53.450;-2.286;2023-08-06T20:19:28;101672.34;;;21.38;100.00
23733;BME280;12047;53.450;-2.286;2023-08-06T20:24:29;101668.16;;;21.65;100.00
23733;BME280;12047;53.450;-2.286;2023-08-06T20:29:29;101680.06;;;21.56;100.00
23733;BME280;12047;53.450;-2.286;2023-08-06T20:34:30;101683.66;;;21.19;100.00
23733;BME280;12047;53.450;-2.286;2023-08-06T20:39:30;101684.31;;;20.84;100.00
23733;BME280;12047;53.450;-2.286;2023-08-06T20:44:31;101691.41;;;20.62;100.00
23733;BME280;12047;53.450;-2.286;2023-08-06T20:49:34;101686.03;;;20.31;100.00
23733;BME280;12047;53.450;-2.286;2023-08-06T20:54:35;101690.09;;;20.58;100.00
23733;BME280;12047;53.450;-2.286;2023-08-06T20:59:35;101697.06;;;20.90;100.00
23733;BME280;12047;53.450;-2.286;2023-08-06T21:04:36;101700.66;;;20.82;100.00
23733;BME280;12047;53.450;-2.286;2023-08-06T21:09:36;101697.94;;;20.36;100.00
23733;BME280;12047;53.450;-2.286;2023-08-06T21:14:37;101696.91;;;20.68;100.00
23733;BME280;12047;53.450;-2.286;2023-08-06T21:19:37;101695.72;;;20.48;100.00
23733;BME280;12047;53.450;-2.286;2023-08-06T21:24:37;101701.09;;;20.48;100.00
23733;BME280;12047;53.450;-2.286;2023-08-06T21:29:38;101697.56;;;20.48;100.00
23733;BME280;12047;53.450;-2.286;2023-08-06T21:34:41;101704.19;;;20.37;100.00
23733;BME280;12047;53.450;-2.286;2023-08-06T21:39:41;101701.16;;;20.32;100.00
23733;BME280;12047;53.450;-2.286;2023-08-06T21:44:42;101695.72;;;20.17;100.00
23733;BME280;12047;53.450;-2.286;2023-08-06T21:49:42;101703.53;;;20.04;100.00
23733;BME280;12047;53.450;-2.286;2023-08-06T21:54:43;101714.34;;;20.27;100.00
23733;BME280;12047;53.450;-2.286;2023-08-06T21:59:43;101713.06;;;19.76;100.00
23733;BME280;12047;53.450;-2.286;2023-08-06T22:04:44;101712.50;;;19.80;100.00
23733;BME280;12047;53.450;-2.286;2023-08-06T22:09:44;101705.81;;;20.15;100.00
23733;BME280;12047;53.450;-2.286;2023-08-06T22:14:45;101704.59;;;19.87;100.00
23733;BME280;12047;53.450;-2.286;2023-08-06T22:19:45;101701.59;;;20.21;100.00
23733;BME280;12047;53.450;-2.286;2023-08-06T22:24:46;101695.81;;;20.01;100.00
23733;BME280;12047;53.450;-2.286;2023-08-06T22:29:46;101688.88;;;20.37;100.00
23733;BME280;12047;53.450;-2.286;2023-08-06T22:34:47;101695.81;;;20.55;100.00
23733;BME280;12047;53.450;-2.286;2023-08-06T22:39:47;101688.88;;;20.37;100.00
23733;BME280;12047;53.450;-2.286;2023-08-06T22:44:47;101685.97;;;20.16;100.00
23733;BME280;12047;53.450;-2.286;2023-08-06T22:49:48;101689.66;;;20.15;100.00
23733;BME280;12047;53.450;-2.286;2023-08-06T22:54:48;101689.31;;;20.18;100.00
23733;BME280;12047;53.450;-2.286;2023-08-06T22:59:49;101694.00;;;20.24;100.00
23733;BME280;12047;53.450;-2.286;2023-08-06T23:04:49;101702.31;;;19.67;100.00
23733;BME280;12047;53.450;-2.286;2023-08-06T23:09:50;101687.09;;;19.91;100.00
23733;BME280;12047;53.450;-2.286;2023-08-06T23:14:50;101696.94;;;20.07;100.00
23733;BME280;12047;53.450;-2.286;2023-08-06T23:19:51;101703.25;;;19.83;100.00
23733;BME280;12047;53.450;-2.286;2023-08-06T23:24:51;101698.06;;;19.81;100.00
23733;BME280;12047;53.450;-2.286;2023-08-06T23:29:52;101693.91;;;19.70;100.00
23733;BME280;12047;53.450;-2.286;2023-08-06T23:34:52;101698.31;;;19.55;100.00
23733;BME280;12047;53.450;-2.286;2023-08-06T23:39:53;101695.91;;;19.77;100.00
23733;BME280;12047;53.450;-2.286;2023-08-06T23:44:55;101703.34;;;19.58;100.00
23733;BME280;12047;53.450;-2.286;2023-08-06T23:49:55;101697.22;;;19.25;100.00
23733;BME280;12047;53.450;-2.286;2023-08-06T23:54:56;101697.72;;;19.21;100.00
23733;BME280;12047;53.450;-2.286;2023-08-06T23:59:56;101693.28;;;19.44;100.00
